Time;durP1;ratioP1;P1;durP2;ratioP2;P2;SDS_P1;SDS_P2;PMS_P1;PMS_P2;Temp;Humidity;BMP_temperature;BMP_pressure;BME280_temperature;BME280_humidity;BME280_pressure;Samples;Min_cycle;Max_cycle;Signal;HPM_P1;HPM_P2
2023/10/26 00:01:55;;;;;;;37.47;14.87;;;;;;;;;;5093943;28;20052;-73
2023/10/26 00:04:21;;;;;;;38.07;16.03;;;;;;;;;;5094303;28;20052;-72
2023/10/26 00:06:47;;;;;;;35.63;15.90;;;;;;;;;;5076194;28;20300;-73
2023/10/26 00:09:13;;;;;;;37.33;14.95;;;;;;;;;;5075600;28;20089;-72
2023/10/26 00:11:39;;;;;;;38.30;14.80;;;;;;;;;;5093841;28;20139;-72
2023/10/26 00:14:06;;;;;;;40.08;14.25;;;;;;;;;;5076210;28;20063;-72
2023/10/26 00:16:32;;;;;;;37.03;15.70;;;;;;;;;;5094019;28;20048;-72
2023/10/26 00:18:58;;;;;;;36.47;14.35;;;;;;;;;;5093804;28;20047;-72
2023/10/26 00:21:24;;;;;;;40.08;14.77;;;;;;;;;;5075921;28;20047;-73
2023/10/26 00:23:51;;;;;;;35.58;14.85;;;;;;;;;;5093821;28;20063;-73
2023/10/26 00:26:17;;;;;;;33.97;14.43;;;;;;;;;;5075734;28;20056;-72
2023/10/26 00:28:43;;;;;;;35.35;14.95;;;;;;;;;;5093429;28;20101;-72
2023/10/26 00:31:09;;;;;;;30.20;13.77;;;;;;;;;;5075969;28;20131;-72
2023/10/26 00:33:35;;;;;;;33.95;15.52;;;;;;;;;;5075920;28;20436;-73
2023/10/26 00:36:01;;;;;;;31.73;12.93;;;;;;;;;;5076170;28;20047;-74
2023/10/26 00:38:27;;;;;;;31.23;13.77;;;;;;;;;;5093596;28;20044;-72
2023/10/26 00:40:53;;;;;;;34.65;13.75;;;;;;;;;;5093635;28;20342;-73
2023/10/26 00:43:21;;;;;;;32.65;13.88;;;;;;;;;;5093535;28;20082;-71
2023/10/26 00:45:47;;;;;;;;;;;;;;;;;;5076141;28;20056;-72
2023/10/26 00:48:13;;;;;;;32.67;12.97;;;;;;;;;;5094104;28;20370;-71
2023/10/26 00:50:39;;;;;;;28.35;12.20;;;;;;;;;;5075376;28;20048;-73
2023/10/26 00:53:05;;;;;;;28.08;12.85;;;;;;;;;;5093449;28;20044;-71
2023/10/26 00:55:31;;;;;;;28.65;12.57;;;;;;;;;;5075862;28;20461;-73
2023/10/26 00:57:57;;;;;;;29.20;12.05;;;;;;;;;;5093285;28;20040;-72
2023/10/26 01:00:23;;;;;;;33.78;13.18;;;;;;;;;;5093356;28;20047;-73
2023/10/26 01:02:49;;;;;;;32.22;13.63;;;;;;;;;;5093390;28;20124;-74
2023/10/26 01:05:15;;;;;;;33.47;14.18;;;;;;;;;;5093594;28;20083;-71
2023/10/26 01:07:42;;;;;;;33.35;15.15;;;;;;;;;;5059144;28;20373;-73
2023/10/26 01:10:08;;;;;;;34.80;13.60;;;;;;;;;;5059276;28;20446;-73
2023/10/26 01:12:34;;;;;;;32.27;14.07;;;;;;;;;;5075728;28;20048;-72
2023/10/26 01:15:00;;;;;;;31.23;13.85;;;;;;;;;;5076422;28;20369;-73
2023/10/26 01:17:26;;;;;;;33.47;13.73;;;;;;;;;;5078322;28;20399;-72
2023/10/26 01:19:52;;;;;;;33.35;14.85;;;;;;;;;;5079386;28;20124;-74
2023/10/26 01:22:18;;;;;;;31.40;14.82;;;;;;;;;;5080067;28;20040;-73
2023/10/26 01:24:44;;;;;;;36.05;15.82;;;;;;;;;;5098888;28;20048;-72
2023/10/26 01:27:10;;;;;;;32.63;14.10;;;;;;;;;;5079877;28;20043;-74
2023/10/26 01:29:36;;;;;;;39.65;15.23;;;;;;;;;;5079238;28;20048;-72
2023/10/26 01:32:03;;;;;;;39.92;15.13;;;;;;;;;;5079325;28;20040;-72
2023/10/26 01:34:31;;;;;;;35.67;15.10;;;;;;;;;;5080272;28;20494;-73
2023/10/26 01:36:57;;;;;;;35.47;15.52;;;;;;;;;;5062928;28;20495;-73
2023/10/26 01:39:24;;;;;;;44.58;16.05;;;;;;;;;;5097273;28;20048;-73
2023/10/26 01:41:50;;;;;;;35.97;15.20;;;;;;;;;;5079173;28;20054;-72
2023/10/26 01:44:16;;;;;;;36.15;15.15;;;;;;;;;;5097044;28;20043;-72
2023/10/26 01:46:42;;;;;;;43.65;16.52;;;;;;;;;;5079095;28;20117;-73
2023/10/26 01:49:08;;;;;;;36.20;15.75;;;;;;;;;;5063265;28;20055;-74
2023/10/26 01:51:34;;;;;;;39.85;16.05;;;;;;;;;;5079043;28;20532;-72
2023/10/26 01:54:01;;;;;;;41.22;15.93;;;;;;;;;;5078723;28;20044;-77
2023/10/26 01:56:27;;;;;;;42.65;16.98;;;;;;;;;;5097504;28;20130;-76
2023/10/26 01:58:53;;;;;;;41.78;17.23;;;;;;;;;;5078742;28;20062;-76
2023/10/26 02:01:19;;;;;;;47.80;17.75;;;;;;;;;;5096506;28;20052;-76
2023/10/26 02:03:45;;;;;;;44.25;17.63;;;;;;;;;;5097406;28;20052;-75
2023/10/26 02:06:11;;;;;;;51.20;19.58;;;;;;;;;;5078930;28;20044;-76
2023/10/26 02:08:37;;;;;;;44.95;17.85;;;;;;;;;;5097363;28;20036;-76
2023/10/26 02:11:04;;;;;;;58.65;18.67;;;;;;;;;;5061818;28;20176;-76
2023/10/26 02:13:30;;;;;;;52.28;19.63;;;;;;;;;;5096078;28;20569;-77
2023/10/26 02:15:57;;;;;;;47.80;18.05;;;;;;;;;;5096392;28;20075;-77
2023/10/26 02:18:23;;;;;;;51.97;19.98;;;;;;;;;;5096356;28;20097;-77
2023/10/26 02:20:49;;;;;;;50.00;18.52;;;;;;;;;;5096498;28;20048;-78
2023/10/26 02:23:16;;;;;;;49.42;18.42;;;;;;;;;;5062090;28;20040;-78
2023/10/26 02:25:42;;;;;;;53.38;20.45;;;;;;;;;;5096253;28;20104;-76
2023/10/26 02:28:09;;;;;;;47.60;18.60;;;;;;;;;;5097189;28;20439;-75
2023/10/26 02:30:35;;;;;;;50.08;19.15;;;;;;;;;;5097398;28;20052;-75
2023/10/26 02:33:01;;;;;;;50.33;18.42;;;;;;;;;;5101198;28;20055;-76
2023/10/26 02:35:27;;;;;;;45.95;19.02;;;;;;;;;;5102715;28;20089;-76
2023/10/26 02:37:53;;;;;;;49.15;18.45;;;;;;;;;;5101683;28;20044;-70
2023/10/26 02:40:19;;;;;;;49.10;18.33;;;;;;;;;;5101345;28;20505;-75
2023/10/26 02:42:45;;;;;;;53.10;19.42;;;;;;;;;;5098633;28;20040;-76
2023/10/26 02:45:11;;;;;;;50.00;19.75;;;;;;;;;;5098196;28;20073;-73
2023/10/26 02:47:37;;;;;;;54.47;20.40;;;;;;;;;;5096889;28;20044;-76
2023/10/26 02:50:04;;;;;;;50.08;19.77;;;;;;;;;;5079062;28;20044;-76
2023/10/26 02:52:30;;;;;;;54.17;19.80;;;;;;;;;;5096570;28;20451;-76
2023/10/26 02:54:56;;;;;;;55.67;21.38;;;;;;;;;;5095676;28;20051;-73
2023/10/26 02:57:22;;;;;;;60.22;20.75;;;;;;;;;;5077339;28;20468;-78
2023/10/26 02:59:48;;;;;;;53.05;20.17;;;;;;;;;;5061791;28;20047;-77
2023/10/26 03:02:14;;;;;;;52.50;19.30;;;;;;;;;;5077254;28;20052;-76
2023/10/26 03:04:42;;;;;;;54.78;20.73;;;;;;;;;;5099469;28;20131;-75
2023/10/26 03:07:10;;;;;;;53.90;20.45;;;;;;;;;;5103029;28;20043;-76
2023/10/26 03:09:37;;;;;;;53.42;21.50;;;;;;;;;;5101939;28;20040;-76
2023/10/26 03:12:03;;;;;;;56.93;21.73;;;;;;;;;;5099626;28;20044;-75
2023/10/26 03:14:29;;;;;;;58.20;21.13;;;;;;;;;;5097117;28;20091;-76
2023/10/26 03:16:56;;;;;;;58.88;22.58;;;;;;;;;;5098098;28;20055;-76
2023/10/26 03:19:22;;;;;;;55.53;21.73;;;;;;;;;;5097105;28;20049;-77
2023/10/26 03:21:48;;;;;;;64.88;23.92;;;;;;;;;;5062187;28;20048;-75
2023/10/26 03:24:14;;;;;;;68.20;23.10;;;;;;;;;;5077714;28;20083;-76
2023/10/26 03:26:40;;;;;;;58.05;22.35;;;;;;;;;;5077790;28;20048;-77
2023/10/26 03:29:06;;;;;;;62.30;22.33;;;;;;;;;;5095395;28;20040;-76
2023/10/26 03:31:33;;;;;;;59.40;21.92;;;;;;;;;;5095858;28;20044;-77
2023/10/26 03:33:59;;;;;;;;;;;;;;;;;;5077184;28;20064;-75
2023/10/26 03:36:25;;;;;;;57.43;21.97;;;;;;;;;;5076883;28;20360;-77
2023/10/26 03:38:51;;;;;;;76.20;29.52;;;;;;;;;;5076621;28;20052;-71
2023/10/26 03:41:18;;;;;;;60.33;22.27;;;;;;;;;;5077266;28;20048;-76
2023/10/26 03:43:44;;;;;;;;;;;;;;;;;;5094967;28;20094;-75
2023/10/26 03:46:10;;;;;;;59.08;21.25;;;;;;;;;;5093979;28;19920;-75
2023/10/26 03:48:36;;;;;;;57.55;21.23;;;;;;;;;;5077153;28;20468;-75
2023/10/26 03:51:03;;;;;;;66.95;23.17;;;;;;;;;;5094460;28;20040;-76
2023/10/26 03:53:29;;;;;;;62.13;22.10;;;;;;;;;;5094797;28;20044;-75
2023/10/26 03:55:56;;;;;;;71.15;23.52;;;;;;;;;;5094312;28;20119;-76
2023/10/26 03:58:22;;;;;;;65.93;22.58;;;;;;;;;;5094466;28;20388;-76
2023/10/26 04:00:48;;;;;;;67.95;23.02;;;;;;;;;;5094862;28;20122;-76
2023/10/26 04:03:14;;;;;;;65.93;23.10;;;;;;;;;;5093847;28;20068;-76
2023/10/26 04:05:40;;;;;;;69.38;24.75;;;;;;;;;;5094771;28;20055;-75
2023/10/26 04:08:07;;;;;;;60.40;23.33;;;;;;;;;;5094103;28;20063;-74
2023/10/26 04:10:34;;;;;;;73.90;25.07;;;;;;;;;;5076165;28;20055;-76
2023/10/26 04:13:00;;;;;;;69.72;24.63;;;;;;;;;;5093980;28;20282;-76
2023/10/26 04:15:26;;;;;;;73.68;24.83;;;;;;;;;;5094242;28;20372;-77
2023/10/26 04:17:52;;;;;;;68.22;25.15;;;;;;;;;;5059139;28;20044;-75
2023/10/26 04:20:20;;;;;;;72.53;24.73;;;;;;;;;;5075970;28;20047;-77
2023/10/26 04:22:46;;;;;;;65.93;23.30;;;;;;;;;;5093987;28;20051;-76
2023/10/26 04:25:13;;;;;;;64.32;24.63;;;;;;;;;;5093917;28;20346;-76
2023/10/26 04:27:39;;;;;;;66.70;25.05;;;;;;;;;;5094708;28;20128;-72
2023/10/26 04:30:06;;;;;;;74.20;26.83;;;;;;;;;;5075744;28;20044;-76
2023/10/26 04:32:32;;;;;;;70.43;24.65;;;;;;;;;;5093827;28;20181;-78
2023/10/26 04:34:59;;;;;;;71.72;24.25;;;;;;;;;;5093812;28;20048;-76
2023/10/26 04:37:25;;;;;;;;;;;;;;;;;;5076047;28;20135;-76
2023/10/26 04:39:51;;;;;;;66.60;25.97;;;;;;;;;;5093717;28;20344;-76
2023/10/26 04:42:18;;;;;;;69.97;23.98;;;;;;;;;;5075443;28;20082;-74
2023/10/26 04:44:44;;;;;;;72.22;25.77;;;;;;;;;;5075656;28;20127;-73
2023/10/26 04:47:10;;;;;;;71.38;25.25;;;;;;;;;;5094338;28;20375;-77
2023/10/26 04:49:36;;;;;;;67.65;24.42;;;;;;;;;;5093579;28;20052;-76
2023/10/26 04:52:02;;;;;;;74.43;25.20;;;;;;;;;;5093401;28;20040;-76
2023/10/26 04:54:28;;;;;;;77.20;28.60;;;;;;;;;;5059125;28;20365;-76
2023/10/26 04:56:55;;;;;;;73.47;25.15;;;;;;;;;;5093543;28;20123;-75
2023/10/26 04:59:21;;;;;;;66.93;24.15;;;;;;;;;;5093372;28;20048;-76
2023/10/26 05:01:47;;;;;;;68.75;23.38;;;;;;;;;;5093178;28;20052;-73
2023/10/26 05:04:13;;;;;;;73.82;25.00;;;;;;;;;;5093447;28;20063;-76
2023/10/26 05:06:39;;;;;;;70.82;24.25;;;;;;;;;;5093379;28;20140;-75
2023/10/26 05:09:05;;;;;;;70.93;24.48;;;;;;;;;;5093407;28;20104;-75
2023/10/26 05:11:31;;;;;;;75.57;25.85;;;;;;;;;;5093249;28;20083;-75
2023/10/26 05:13:57;;;;;;;69.63;26.08;;;;;;;;;;5093255;28;20044;-75
2023/10/26 05:16:23;;;;;;;73.90;24.08;;;;;;;;;;5075141;28;20052;-75
2023/10/26 05:18:49;;;;;;;69.43;25.25;;;;;;;;;;5093233;28;20050;-77
2023/10/26 05:21:16;;;;;;;63.28;22.55;;;;;;;;;;5093461;28;20051;-76
2023/10/26 05:23:43;;;;;;;72.90;24.83;;;;;;;;;;5093262;28;20048;-76
2023/10/26 05:26:10;;;;;;;67.80;24.33;;;;;;;;;;5093706;28;20048;-76
2023/10/26 05:28:36;;;;;;;70.68;24.25;;;;;;;;;;5093366;28;20094;-75
2023/10/26 05:31:02;;;;;;;69.13;24.58;;;;;;;;;;5074966;28;20052;-72
2023/10/26 05:33:28;;;;;;;70.60;23.83;;;;;;;;;;5093635;28;20044;-75
2023/10/26 05:35:54;;;;;;;79.13;25.05;;;;;;;;;;5075304;28;20503;-75
2023/10/26 05:38:21;;;;;;;73.22;23.52;;;;;;;;;;5092997;28;20044;-75
2023/10/26 05:40:47;;;;;;;;;;;;;;;;;;5093719;28;20048;-77
2023/10/26 05:43:13;;;;;;;78.33;23.63;;;;;;;;;;5093151;28;19927;-77
2023/10/26 05:45:39;;;;;;;81.38;23.92;;;;;;;;;;5074906;28;20501;-77
2023/10/26 05:48:08;;;;;;;91.93;23.95;;;;;;;;;;5093587;28;20043;-76
2023/10/26 05:50:34;;;;;;;64.82;22.77;;;;;;;;;;5093060;28;20126;-78
2023/10/26 05:53:00;;;;;;;69.28;23.00;;;;;;;;;;5093106;28;20067;-77
2023/10/26 05:55:26;;;;;;;86.75;24.42;;;;;;;;;;5093009;28;20174;-77
2023/10/26 05:57:52;;;;;;;73.53;24.27;;;;;;;;;;5092992;28;20050;-79
2023/10/26 06:00:18;;;;;;;86.60;24.58;;;;;;;;;;5092954;28;20083;-76
2023/10/26 06:02:45;;;;;;;78.68;23.00;;;;;;;;;;5071095;28;20048;-78
2023/10/26 06:05:11;;;;;;;72.00;24.73;;;;;;;;;;5073114;28;20465;-78
2023/10/26 06:07:37;;;;;;;94.25;25.55;;;;;;;;;;5073271;28;20201;-77
2023/10/26 06:10:05;;;;;;;83.80;24.15;;;;;;;;;;5076296;28;20036;-77
2023/10/26 06:12:31;;;;;;;100.80;25.40;;;;;;;;;;5076239;28;20091;-77
2023/10/26 06:14:57;;;;;;;96.45;23.95;;;;;;;;;;5076252;28;20473;-78
2023/10/26 06:17:23;;;;;;;78.57;23.35;;;;;;;;;;5076158;28;20051;-78
2023/10/26 06:19:50;;;;;;;63.40;21.60;;;;;;;;;;5074839;28;20055;-78
2023/10/26 06:22:16;;;;;;;211.45;27.65;;;;;;;;;;5076101;28;20040;-79
2023/10/26 06:24:43;;;;;;;78.72;23.33;;;;;;;;;;5076691;28;20131;-77
2023/10/26 06:27:10;;;;;;;92.43;23.85;;;;;;;;;;5076840;28;20048;-78
2023/10/26 06:29:36;;;;;;;86.30;23.15;;;;;;;;;;5075639;28;20364;-78
2023/10/26 06:32:02;;;;;;;69.65;20.58;;;;;;;;;;5076043;28;20048;-79
2023/10/26 06:34:28;;;;;;;86.07;20.83;;;;;;;;;;5075815;28;20048;-77
2023/10/26 06:36:54;;;;;;;91.07;22.42;;;;;;;;;;5058737;28;20102;-78
2023/10/26 06:39:20;;;;;;;399.38;31.23;;;;;;;;;;5076469;28;20083;-77
2023/10/26 06:41:47;;;;;;;82.10;21.75;;;;;;;;;;5074403;28;20472;-79
2023/10/26 06:44:13;;;;;;;55.20;20.00;;;;;;;;;;5074504;28;20377;-79
2023/10/26 06:46:39;;;;;;;72.55;20.65;;;;;;;;;;5074326;28;20045;-77
2023/10/26 06:49:05;;;;;;;65.68;20.70;;;;;;;;;;5075452;28;20040;-78
2023/10/26 06:51:31;;;;;;;66.57;21.58;;;;;;;;;;5075537;28;20044;-79
2023/10/26 06:53:57;;;;;;;104.63;26.27;;;;;;;;;;5075497;28;20051;-78
2023/10/26 06:56:23;;;;;;;91.85;26.60;;;;;;;;;;5076033;28;20052;-79
2023/10/26 06:58:49;;;;;;;87.07;25.65;;;;;;;;;;5075389;28;20044;-79
2023/10/26 07:01:16;;;;;;;82.15;25.02;;;;;;;;;;5076015;28;20069;-79
2023/10/26 07:03:42;;;;;;;107.93;25.77;;;;;;;;;;5094831;28;20132;-80
2023/10/26 07:06:08;;;;;;;64.22;21.42;;;;;;;;;;5095702;28;20282;-80
2023/10/26 07:08:34;;;;;;;269.63;31.17;;;;;;;;;;5095555;28;20040;-77
2023/10/26 07:11:04;;;;;;;210.73;29.23;;;;;;;;;;5077713;28;20051;-79
2023/10/26 07:13:30;;;;;;;326.13;35.22;;;;;;;;;;5077264;28;20070;-78
2023/10/26 07:16:00;;;;;;;510.40;39.92;;;;;;;;;;5077221;28;20040;-78
2023/10/26 07:18:27;;;;;;;463.17;39.13;;;;;;;;;;5095547;28;20047;-78
2023/10/26 07:20:53;;;;;;;495.13;39.40;;;;;;;;;;5095245;28;20135;-76
2023/10/26 07:23:19;;;;;;;505.43;40.23;;;;;;;;;;5077287;28;20461;-77
2023/10/26 07:25:45;;;;;;;373.75;33.78;;;;;;;;;;5095562;28;20282;-78
2023/10/26 07:28:12;;;;;;;467.83;35.78;;;;;;;;;;5095063;28;20396;-79
2023/10/26 07:30:44;;;;;;;597.72;46.08;;;;;;;;;;5095156;28;20048;-77
2023/10/26 07:33:10;;;;;;;394.48;34.67;;;;;;;;;;5094901;28;20500;-79
2023/10/26 07:35:42;;;;;;;377.67;32.42;;;;;;;;;;5095765;28;20130;-70
2023/10/26 07:38:09;;;;;;;174.43;26.08;;;;;;;;;;5077935;28;20480;-79
2023/10/26 07:40:35;;;;;;;393.20;38.03;;;;;;;;;;5096239;28;20074;-78
2023/10/26 07:43:01;;;;;;;259.37;32.23;;;;;;;;;;5095165;28;20476;-79
2023/10/26 07:45:27;;;;;;;166.80;27.50;;;;;;;;;;5060364;28;20113;-78
2023/10/26 07:47:53;;;;;;;351.00;33.13;;;;;;;;;;5077472;28;20136;-78
2023/10/26 07:50:20;;;;;;;349.85;35.17;;;;;;;;;;5076433;28;20048;-78
2023/10/26 07:52:47;;;;;;;207.48;26.25;;;;;;;;;;5094823;28;20048;-80
2023/10/26 07:55:13;;;;;;;256.83;29.90;;;;;;;;;;5076693;28;20044;-79
2023/10/26 07:57:41;;;;;;;153.07;26.40;;;;;;;;;;5076676;28;20056;-74
2023/10/26 08:00:08;;;;;;;231.60;28.92;;;;;;;;;;5094363;28;20100;-78
2023/10/26 08:02:34;;;;;;;254.98;31.50;;;;;;;;;;5094189;28;20056;-75
2023/10/26 08:05:00;;;;;;;144.77;25.63;;;;;;;;;;5094703;28;20044;-78
2023/10/26 08:07:26;;;;;;;232.70;32.33;;;;;;;;;;5095251;28;20044;-76
2023/10/26 08:09:53;;;;;;;103.68;24.55;;;;;;;;;;5095687;28;20044;-78
2023/10/26 08:12:19;;;;;;;115.53;25.45;;;;;;;;;;5098249;28;20077;-80
2023/10/26 08:14:45;;;;;;;147.20;27.73;;;;;;;;;;5099989;28;20044;-80
2023/10/26 08:17:11;;;;;;;91.95;25.25;;;;;;;;;;5100986;28;20131;-79
2023/10/26 08:19:38;;;;;;;141.35;29.88;;;;;;;;;;5101753;28;20040;-78
2023/10/26 08:22:05;;;;;;;95.00;25.13;;;;;;;;;;5100719;28;20048;-77
2023/10/26 08:24:31;;;;;;;173.23;34.83;;;;;;;;;;5098574;28;20051;-78
2023/10/26 08:26:57;;;;;;;109.07;27.00;;;;;;;;;;5096320;28;20090;-77
2023/10/26 08:29:24;;;;;;;99.40;26.92;;;;;;;;;;5096147;28;20072;-79
2023/10/26 08:31:51;;;;;;;79.72;24.75;;;;;;;;;;5078019;28;20056;-79
2023/10/26 08:34:17;;;;;;;69.47;25.67;;;;;;;;;;5095833;28;20395;-78
2023/10/26 08:36:44;;;;;;;66.53;23.33;;;;;;;;;;5097172;28;20040;-79
2023/10/26 08:39:10;;;;;;;;;;;;;;;;;;5086650;28;20456;-78
2023/10/26 08:41:36;;;;;;;74.17;23.97;;;;;;;;;;5068894;28;19982;-77
2023/10/26 08:44:03;;;;;;;68.45;25.27;;;;;;;;;;5086487;28;20043;-79
2023/10/26 08:46:29;;;;;;;62.83;24.00;;;;;;;;;;5103182;28;20097;-78
2023/10/26 08:48:58;;;;;;;62.30;23.25;;;;;;;;;;5064590;28;20053;-77
2023/10/26 08:51:24;;;;;;;56.15;22.83;;;;;;;;;;5080377;28;20063;-78
2023/10/26 08:53:50;;;;;;;55.90;22.83;;;;;;;;;;5078650;28;20377;-77
2023/10/26 08:56:20;;;;;;;54.70;22.67;;;;;;;;;;5094856;28;20052;-77
2023/10/26 08:58:48;;;;;;;55.13;21.60;;;;;;;;;;5094588;28;20421;-77
2023/10/26 09:01:15;;;;;;;;;;;;;;;;;;5093673;28;20054;-77
2023/10/26 09:03:41;;;;;;;52.45;21.88;;;;;;;;;;5094144;28;20007;-77
2023/10/26 09:06:08;;;;;;;49.58;20.98;;;;;;;;;;5093885;28;20055;-78
2023/10/26 09:08:34;;;;;;;50.78;21.88;;;;;;;;;;5094556;28;20052;-77
2023/10/26 09:11:01;;;;;;;44.80;20.92;;;;;;;;;;5075422;28;20051;-76
2023/10/26 09:13:27;;;;;;;;;;;;;;;;;;5093838;28;20048;-73
2023/10/26 09:15:57;;;;;;;45.33;19.37;;;;;;;;;;5093334;28;20383;-77
2023/10/26 09:18:23;;;;;;;49.78;22.30;;;;;;;;;;5093667;28;20346;-76
2023/10/26 09:21:05;;;;;;;47.85;19.70;;;;;;;;;;5093451;28;20130;-77
2023/10/26 09:23:32;;;;;;;47.55;21.00;;;;;;;;;;5093488;28;20048;-77
2023/10/26 09:25:59;;;;;;;49.15;21.27;;;;;;;;;;5075306;28;20122;-77
2023/10/26 09:28:25;;;;;;;45.15;19.65;;;;;;;;;;5094073;28;20044;-77
2023/10/26 09:30:57;;;;;;;46.57;20.87;;;;;;;;;;5094082;28;20044;-76
2023/10/26 09:33:24;;;;;;;45.08;20.20;;;;;;;;;;5094203;28;20388;-76
2023/10/26 09:35:50;;;;;;;45.38;19.27;;;;;;;;;;5093249;28;20048;-77
2023/10/26 09:38:21;;;;;;;43.60;19.48;;;;;;;;;;5093838;28;20489;-75
2023/10/26 09:40:48;;;;;;;41.75;19.50;;;;;;;;;;5093295;28;20044;-76
2023/10/26 09:43:14;;;;;;;41.03;19.55;;;;;;;;;;5094582;28;20109;-76
2023/10/26 09:45:40;;;;;;;40.75;18.70;;;;;;;;;;5097444;28;20047;-75
2023/10/26 09:48:07;;;;;;;41.25;19.67;;;;;;;;;;5097214;28;20123;-75
2023/10/26 09:50:38;;;;;;;46.20;20.25;;;;;;;;;;5097132;28;20044;-76
2023/10/26 09:53:04;;;;;;;42.50;20.60;;;;;;;;;;5096676;28;20047;-76
2023/10/26 09:55:30;;;;;;;42.47;18.63;;;;;;;;;;5097368;28;20139;-75
2023/10/26 09:58:02;;;;;;;39.53;18.27;;;;;;;;;;5096414;28;20044;-71
2023/10/26 10:00:31;;;;;;;37.03;17.83;;;;;;;;;;5096955;28;20701;-77
2023/10/26 10:03:23;;;;;;;39.22;18.23;;;;;;;;;;5096972;28;20063;-76
2023/10/26 10:05:49;;;;;;;36.20;18.17;;;;;;;;;;5092494;28;20055;-76
2023/10/26 10:08:35;;;;;;;35.97;17.48;;;;;;;;;;5096745;28;20097;-75
2023/10/26 10:11:15;;;;;;;37.72;17.85;;;;;;;;;;5096582;28;20479;-75
2023/10/26 10:13:41;;;;;;;35.47;17.13;;;;;;;;;;5096912;28;20429;-76
2023/10/26 10:16:27;;;;;;;34.97;16.92;;;;;;;;;;5096962;28;20074;-75
2023/10/26 10:19:12;;;;;;;35.78;16.15;;;;;;;;;;5096680;28;20036;-76
2023/10/26 10:21:38;;;;;;;32.10;15.80;;;;;;;;;;5095925;28;20052;-75
2023/10/26 10:24:04;;;;;;;38.17;15.93;;;;;;;;;;5096713;28;20052;-75
2023/10/26 10:26:50;;;;;;;29.40;14.93;;;;;;;;;;5096896;28;20051;-75
2023/10/26 10:29:20;;;;;;;28.95;15.02;;;;;;;;;;5096164;28;20048;-75
2023/10/26 10:31:46;;;;;;;28.23;14.20;;;;;;;;;;5078993;28;20056;-75
2023/10/26 10:34:15;;;;;;;26.50;12.55;;;;;;;;;;5095845;28;20530;-75
2023/10/26 10:36:59;;;;;;;27.27;13.38;;;;;;;;;;5096073;28;20100;-75
2023/10/26 10:39:26;;;;;;;27.48;13.25;;;;;;;;;;5077984;28;20044;-75
2023/10/26 10:41:52;;;;;;;27.75;15.32;;;;;;;;;;5061528;28;20056;-73
2023/10/26 10:44:18;;;;;;;27.25;14.38;;;;;;;;;;5095880;28;20043;-75
2023/10/26 10:46:48;;;;;;;25.25;12.57;;;;;;;;;;5096012;28;20048;-76
2023/10/26 10:49:16;;;;;;;27.05;12.57;;;;;;;;;;5095468;28;20506;-76
2023/10/26 10:51:44;;;;;;;23.27;12.85;;;;;;;;;;5095828;28;20055;-75
2023/10/26 10:54:18;;;;;;;25.00;13.43;;;;;;;;;;5077338;28;20051;-74
2023/10/26 10:56:46;;;;;;;21.60;11.07;;;;;;;;;;5078271;28;20045;-77
2023/10/26 10:59:22;;;;;;;24.52;11.38;;;;;;;;;;5077684;28;20056;-75
2023/10/26 11:02:12;;;;;;;24.25;11.57;;;;;;;;;;5077454;28;20531;-76
2023/10/26 11:04:52;;;;;;;25.38;12.18;;;;;;;;;;5082895;28;20480;-75
2023/10/26 11:07:18;;;;;;;22.65;11.23;;;;;;;;;;5077858;28;20054;-77
2023/10/26 11:09:46;;;;;;;23.27;11.52;;;;;;;;;;5095681;28;20129;-77
2023/10/26 11:12:12;;;;;;;23.75;12.27;;;;;;;;;;5095233;28;20610;-75
2023/10/26 11:14:49;;;;;;;26.80;13.13;;;;;;;;;;5095501;28;20149;-76
2023/10/26 11:17:15;;;;;;;;;;;;;;;;;;5095662;28;20135;-76
2023/10/26 11:19:41;;;;;;;26.90;12.10;;;;;;;;;;5095933;28;20122;-75
2023/10/26 11:22:07;;;;;;;22.55;11.35;;;;;;;;;;5077356;28;20332;-76
2023/10/26 11:24:34;;;;;;;21.35;10.48;;;;;;;;;;5077148;28;20113;-75
2023/10/26 11:27:06;;;;;;;25.02;11.70;;;;;;;;;;5095242;28;20108;-73
2023/10/26 11:29:32;;;;;;;22.38;11.15;;;;;;;;;;5094883;28;20086;-74
2023/10/26 11:31:58;;;;;;;23.73;11.95;;;;;;;;;;5060195;28;20506;-74
2023/10/26 11:34:27;;;;;;;24.58;11.57;;;;;;;;;;5094914;28;20097;-74
2023/10/26 11:36:53;;;;;;;26.52;12.98;;;;;;;;;;5095614;28;20070;-74
2023/10/26 11:39:20;;;;;;;27.90;13.47;;;;;;;;;;5095354;28;20127;-74
2023/10/26 11:41:56;;;;;;;21.63;11.55;;;;;;;;;;5094766;28;20127;-74
2023/10/26 11:44:26;;;;;;;24.30;11.48;;;;;;;;;;5077404;28;20091;-75
2023/10/26 11:46:59;;;;;;;22.52;10.98;;;;;;;;;;5094713;28;20044;-75
2023/10/26 11:49:38;;;;;;;23.35;10.10;;;;;;;;;;5095044;28;20044;-75
2023/10/26 11:52:04;;;;;;;15.93;7.40;;;;;;;;;;5094508;28;20039;-76
2023/10/26 11:54:30;;;;;;;19.23;10.15;;;;;;;;;;5094566;28;20048;-77
2023/10/26 11:56:56;;;;;;;20.83;9.90;;;;;;;;;;5095093;28;20206;-74
2023/10/26 11:59:22;;;;;;;19.92;9.75;;;;;;;;;;5094417;28;20383;-75
2023/10/26 12:01:48;;;;;;;21.20;10.85;;;;;;;;;;5094941;28;20069;-75
2023/10/26 12:04:15;;;;;;;17.02;9.20;;;;;;;;;;5077141;28;20537;-76
2023/10/26 12:06:42;;;;;;;21.58;10.57;;;;;;;;;;5093997;28;20048;-75
2023/10/26 12:09:08;;;;;;;19.52;10.45;;;;;;;;;;5094003;28;20048;-74
2023/10/26 12:11:34;;;;;;;18.98;9.95;;;;;;;;;;5093896;28;20485;-73
2023/10/26 12:14:01;;;;;;;18.00;9.05;;;;;;;;;;5094255;28;20044;-74
2023/10/26 12:16:27;;;;;;;19.25;9.52;;;;;;;;;;5094041;28;20454;-75
2023/10/26 12:18:53;;;;;;;19.08;9.40;;;;;;;;;;5076000;28;20040;-74
2023/10/26 12:21:19;;;;;;;17.58;9.40;;;;;;;;;;5075918;28;20040;-74
2023/10/26 12:23:45;;;;;;;18.48;9.05;;;;;;;;;;5075993;28;20131;-76
2023/10/26 12:26:11;;;;;;;18.13;9.15;;;;;;;;;;5075832;28;20043;-76
2023/10/26 12:28:37;;;;;;;19.48;9.38;;;;;;;;;;5094725;28;20040;-76
2023/10/26 12:31:03;;;;;;;21.05;9.63;;;;;;;;;;5093894;28;20048;-75
2023/10/26 12:33:29;;;;;;;19.53;9.60;;;;;;;;;;5093851;28;20051;-76
2023/10/26 12:35:55;;;;;;;18.88;9.45;;;;;;;;;;5094404;28;20442;-75
2023/10/26 12:38:23;;;;;;;20.65;9.68;;;;;;;;;;5059193;28;20052;-75
2023/10/26 12:40:49;;;;;;;21.33;10.85;;;;;;;;;;5059284;28;20145;-75
2023/10/26 12:43:15;;;;;;;20.70;10.03;;;;;;;;;;5094396;28;20180;-75
2023/10/26 12:45:41;;;;;;;18.30;10.07;;;;;;;;;;5093524;28;20286;-76
2023/10/26 12:48:08;;;;;;;18.35;9.00;;;;;;;;;;5076446;28;20341;-76
2023/10/26 12:50:34;;;;;;;18.98;10.25;;;;;;;;;;5093618;28;20043;-75
2023/10/26 12:53:00;;;;;;;19.80;9.88;;;;;;;;;;5093720;28;20044;-74
2023/10/26 12:55:26;;;;;;;20.77;9.85;;;;;;;;;;5093668;28;20091;-75
2023/10/26 12:57:52;;;;;;;19.48;9.57;;;;;;;;;;5093604;28;20079;-75
2023/10/26 13:00:19;;;;;;;20.52;10.55;;;;;;;;;;5093571;28;20044;-75
2023/10/26 13:02:45;;;;;;;21.45;9.98;;;;;;;;;;5094100;28;20133;-76
2023/10/26 13:05:11;;;;;;;19.45;9.45;;;;;;;;;;5075722;28;20060;-75
2023/10/26 13:07:37;;;;;;;20.42;11.02;;;;;;;;;;5093961;28;20055;-76
2023/10/26 13:10:04;;;;;;;17.25;9.65;;;;;;;;;;5093421;28;20101;-75
2023/10/26 13:12:30;;;;;;;22.63;10.10;;;;;;;;;;5093422;28;20044;-75
2023/10/26 13:14:56;;;;;;;21.30;10.38;;;;;;;;;;5059209;28;20347;-76
2023/10/26 13:17:22;;;;;;;19.27;9.00;;;;;;;;;;5096116;28;20051;-75
2023/10/26 13:19:48;;;;;;;21.23;10.00;;;;;;;;;;5098943;28;20051;-75
2023/10/26 13:22:14;;;;;;;20.48;9.77;;;;;;;;;;5098605;28;20086;-75
2023/10/26 13:24:40;;;;;;;18.20;9.18;;;;;;;;;;5101796;28;20044;-75
2023/10/26 13:27:06;;;;;;;17.90;8.70;;;;;;;;;;5102451;28;20048;-75
2023/10/26 13:29:32;;;;;;;15.43;8.23;;;;;;;;;;5100847;28;20059;-76
2023/10/26 13:31:58;;;;;;;19.42;9.20;;;;;;;;;;5081221;28;20221;-77
2023/10/26 13:34:24;;;;;;;17.77;9.10;;;;;;;;;;5081439;28;20091;-77
2023/10/26 13:36:50;;;;;;;15.10;8.27;;;;;;;;;;5097697;28;20055;-75
2023/10/26 13:39:16;;;;;;;17.42;9.07;;;;;;;;;;5097248;28;20044;-76
2023/10/26 13:41:42;;;;;;;16.13;8.63;;;;;;;;;;5097100;28;20051;-77
2023/10/26 13:44:08;;;;;;;16.58;7.95;;;;;;;;;;5097120;28;20048;-75
2023/10/26 13:46:35;;;;;;;18.77;8.93;;;;;;;;;;5097042;28;20380;-76
2023/10/26 13:49:02;;;;;;;18.90;8.77;;;;;;;;;;5097358;28;20127;-77
2023/10/26 13:51:28;;;;;;;;;;;;;;;;;;5079538;28;20113;-74
2023/10/26 13:53:54;;;;;;;15.93;8.10;;;;;;;;;;5096926;28;19920;-77
2023/10/26 13:56:20;;;;;;;15.80;7.85;;;;;;;;;;5078857;28;20531;-77
2023/10/26 13:58:46;;;;;;;19.20;9.25;;;;;;;;;;5096796;28;20036;-76
2023/10/26 14:01:13;;;;;;;21.05;11.52;;;;;;;;;;5097369;28;20056;-76
2023/10/26 14:03:39;;;;;;;21.80;11.23;;;;;;;;;;5096703;28;20059;-76
2023/10/26 14:06:07;;;;;;;17.55;9.30;;;;;;;;;;5096744;28;20048;-75
2023/10/26 14:08:33;;;;;;;18.38;8.95;;;;;;;;;;5096507;28;20185;-76
2023/10/26 14:10:59;;;;;;;17.20;8.68;;;;;;;;;;5096534;28;20147;-75
2023/10/26 14:13:25;;;;;;;18.47;8.60;;;;;;;;;;5096533;28;20048;-77
2023/10/26 14:15:51;;;;;;;17.85;9.30;;;;;;;;;;5096640;28;20192;-75
2023/10/26 14:18:17;;;;;;;17.33;8.48;;;;;;;;;;5096364;28;20040;-75
2023/10/26 14:20:43;;;;;;;17.27;8.95;;;;;;;;;;5078322;28;20052;-76